15 de agosto de 2022

Hora Código Clima Temp. Visibilidade Tecto Vento METAR/SPECI
22:25
V
22 °C 10 km+ 10.000 ft 190° 190° 3 kt METAR EHVK 152025Z AUTO 19003KT 160V230 9999 OVC100 22/16 Q1005 BLU
21:55
V
22 °C 10 km+ 10.000 ft 170° 170° 3 kt METAR EHVK 151955Z AUTO 17003KT 130V210 9999 SCT060 OVC100 22/15 Q1005 BLU
21:25
V
22 °C 10 km+ 10.000 ft 170° 170° 3 kt METAR EHVK 151925Z AUTO 17003KT 150V210 9999 OVC100 22/15 Q1005 BLU
20:55
V
23 °C 10 km+ 10.000 ft 170° 170° 2 kt METAR EHVK 151855Z AUTO 17002KT 9999 BKN100 BKN180 23/15 Q1004 BLU
20:25
V
24 °C 10 km+ 21.000 ft 170° 170° 4 kt METAR EHVK 151825Z AUTO 17004KT 160V230 9999 SCT120 BKN210 24/15 Q1004 BLU
19:55
V
25 °C 10 km+ 10.000 ft 190° 190° 5 kt METAR EHVK 151755Z AUTO 19005KT 170V240 9999 FEW094 BKN100 BKN210 25/15 Q1004 BLU
19:25
V
25 °C 10 km+ 12.000 ft 190° 190° 4 kt METAR EHVK 151725Z AUTO 19004KT 160V250 9999 BKN120 BKN220 25/16 Q1004 BLU
18:55
V
25 °C 10 km+ 9.700 ft 200° 200° 4 kt METAR EHVK 151655Z AUTO 20004KT 140V230 9999 BKN097 OVC120 25/16 Q1004 BLU
18:25
V
26 °C 10 km+ 9.400 ft 180° 180° 7 kt METAR EHVK 151625Z AUTO 18007KT 140V230 9999 OVC094 26/16 Q1004 BLU
17:55
V
26 °C 10 km+ 10.000 ft 210° 210° 5 kt METAR EHVK 151555Z AUTO 21005KT 140V240 9999 OVC100 26/16 Q1004 BLU
17:25
V
25 °C 10 km+ 11.000 ft 230° 230° 6 kt METAR EHVK 151525Z AUTO 23006KT 190V250 9999 OVC110 25/16 Q1004 BLU
16:55
V
26 °C 10 km+ 8.900 ft 220° 220° 8 kt METAR EHVK 151455Z AUTO 22008KT 190V270 9999 FEW078 BKN089 BKN095 26/16 Q1004 BLU
16:25
V
25 °C 10 km+ 9.100 ft 200° 200° 7 kt METAR EHVK 151425Z AUTO 20007KT 180V270 9999 OVC091 25/16 Q1004 BLU
16:09
V
26 °C 10 km+ 10.000 ft 240° 240° 7 kt METAR EHVK 151409Z AUTO 24007KT 150V250 9999 FEW091 OVC100 26/16 Q1004 BLU
15:55
V
26 °C 10 km+ 10.000 ft 220° 220° 8 kt METAR EHVK 151355Z AUTO 22008KT 160V270 9999 FEW061 SCT089 OVC100 26/16 Q1004 BLU TEMPO SCT060CB BKN070
15:25
V
27 °C 10 km+ 11.000 ft 220° 220° 8 kt METAR EHVK 151325Z AUTO 22008KT 150V280 9999 FEW086 BKN110 OVC180 27/16 Q1004 BLU TEMPO SCT060CB BKN070
14:55
V
25 °C 10 km+ 8.600 ft 200° 200° 7 kt METAR EHVK 151255Z AUTO 20007KT 180V260 9999 OVC086 25/16 Q1004 BLU TEMPO SCT060CB BKN070
14:25
V
25 °C 10 km+ 10.000 ft 230° 230° 8 kt METAR EHVK 151225Z AUTO 23008KT 160V260 9999 FEW086 SCT092 OVC100 25/16 Q1004 BLU TEMPO SCT060CB BKN070
13:55
V
24 °C 10 km+ 9.000 ft 210° 210° 7 kt METAR EHVK 151155Z AUTO 21007KT 190V270 9999 OVC090 24/17 Q1004 BLU TEMPO SCT060CB BKN070
13:25
V
24 °C 10 km+ 10.000 ft 210° 210° 8 kt METAR EHVK 151125Z AUTO 21008KT 170V240 9999 FEW068/// SCT096/// OVC100/// 24/17 Q1004 BLU TEMPO SCT060CB BKN070
12:55
V
24 °C 10 km+ 10.000 ft 220° 220° 8 kt METAR EHVK 151055Z AUTO 22008KT 160V260 9999 -DZ FEW093 OVC100 24/17 Q1004 BLU TEMPO SCT060CB BKN070
12:25
V
23 °C 10 km+ 10.000 ft 220° 220° 11 kt METAR EHVK 151025Z AUTO 22011KT 200V270 9999 OVC100 23/16 Q1004 BLU TEMPO SCT060CB BKN070
11:55
V
23 °C 10 km+ 9.900 ft 240° 240° 6 kt METAR EHVK 150955Z AUTO 24006KT 190V280 9999 FEW026 SCT054 BKN099 23/17 Q1004 REDZ BLU TEMPO SCT060CB BKN070
11:25
V
24 °C 10 km+ 8.600 ft 240° 240° 8 kt METAR EHVK 150925Z AUTO 24008KT 200V260 9999 FEW048 SCT081 BKN086 24/16 Q1004 BLU TEMPO SCT060CB BKN070
10:55
V
24 °C 10 km+ 10.000 ft 230° 230° 10 kt METAR EHVK 150855Z AUTO 23010KT 180V250 9999 BKN100 OVC150 24/16 Q1004 BLU TEMPO SCT060CB BKN070
10:25
V
24 °C 10 km+ 12.000 ft 230° 230° 12 kt METAR EHVK 150825Z AUTO 23012KT 180V270 9999 OVC120 24/16 Q1004 BLU TEMPO SCT060CB BKN070
09:55
V
23 °C 10 km+ 11.000 ft 230° 230° 9 kt METAR EHVK 150755Z AUTO 23009KT 190V260 9999 OVC110 23/15 Q1003 BLU TEMPO SCT060CB BKN070
09:25
V
23 °C 10 km+ 11.000 ft 230° 230° 10 kt METAR EHVK 150725Z AUTO 23010KT 190V280 9999 OVC110 23/15 Q1003 BLU TEMPO SCT060CB BKN070
08:55
V
22 °C 10 km+ 14.000 ft 230° 230° 9 kt METAR EHVK 150655Z AUTO 23009KT 190V250 9999 OVC140 22/14 Q1003 BLU TEMPO SCT060CB BKN070
08:25
V
22 °C 10 km+ 14.000 ft 220° 220° 9 kt METAR EHVK 150625Z AUTO 22009KT 190V260 9999 OVC140 22/14 Q1003 BLU TEMPO SCT060CB BKN070
07:55
V
22 °C 10 km+ 10.000 ft 230° 230° 8 kt METAR EHVK 150555Z AUTO 23008KT 210V270 9999 OVC100 22/13 Q1003 BLU TEMPO SCT060CB BKN070
07:25
V
20 °C 10 km+ 12.000 ft 230° 230° 7 kt METAR EHVK 150525Z AUTO 23007KT 9999 OVC120 20/12 Q1003 BLU
06:55
V
20 °C 10 km+ 15.000 ft 240° 240° 7 kt METAR EHVK 150455Z AUTO 24007KT 9999 BKN150 OVC220 20/12 Q1003 BLU
06:25
V
20 °C 10 km+ 35.000 ft 220° 220° 7 kt METAR EHVK 150425Z AUTO 22007KT 180V270 9999 OVC350 20/12 Q1003 BLU
05:55
V
20 °C 10 km+ 34.000 ft 240° 240° 7 kt METAR EHVK 150355Z AUTO 24007KT 9999 FEW097 OVC340 20/12 Q1003 BLU
05:25
V
20 °C 10 km+ 18.000 ft 230° 230° 7 kt METAR EHVK 150325Z AUTO 23007KT 9999 SCT100 OVC180 20/14 Q1002 BLU
04:55
V
19 °C 10 km+ 19.000 ft 230° 230° 7 kt METAR EHVK 150255Z AUTO 23007KT 9999 FEW100 OVC190 19/15 Q1003 BLU
04:25
V
20 °C 10 km+ 13.000 ft 200° 200° 5 kt METAR EHVK 150225Z AUTO 20005KT 9999 SCT097 BKN130 OVC200 20/16 Q1002 BLU
03:58
V
20 °C 10 km+ 10.000 ft Var Var 1 kt METAR EHVK 150158Z AUTO VRB01KT 9999 BKN100/// OVC190/// 20/16 Q1002 BLU
03:55
V
20 °C 10 km+ 11.000 ft 280° 280° 1 kt METAR EHVK 150155Z AUTO 28001KT 9999 SCT096 BKN110 OVC190 20/15 Q1002 BLU
03:25
V
21 °C 10 km+ 11.000 ft Var Var 2 kt METAR EHVK 150125Z AUTO VRB02KT 9999 BKN110 OVC200 21/16 Q1003 BLU
02:55
V
21 °C 10 km+ 10.000 ft Var Var 2 kt METAR EHVK 150055Z AUTO VRB02KT 9999 OVC100 21/15 Q1003 BLU
02:25
V
22 °C 10 km+ 19.000 ft 230° 230° 4 kt METAR EHVK 150025Z AUTO 23004KT 9999 OVC190 22/15 Q1003 BLU
01:55
V
23 °C 10 km+ 20.000 ft 020° 020° 3 kt METAR EHVK 142355Z AUTO 02003KT 9999 SCT120 OVC200 23/15 Q1003 BLU
01:25
V
23 °C 10 km+ 11.000 ft 040° 040° 2 kt METAR EHVK 142325Z AUTO 04002KT 9999 OVC110 23/15 Q1003 BLU
00:55
V
24 °C 10 km+ 20.000 ft 020° 020° 3 kt METAR EHVK 142255Z AUTO 02003KT 9999 OVC200 24/15 Q1003 BLU
00:25
V
24 °C 10 km+ 20.000 ft 030° 030° 3 kt METAR EHVK 142225Z AUTO 03003KT 9999 FEW092 OVC200 24/15 Q1003 BLU

14 de agosto de 2022

Hora Código Clima Temp. Visibilidade Tecto Vento METAR/SPECI
23:55
V
24 °C 10 km+ 20.000 ft 020° 020° 2 kt METAR EHVK 142155Z AUTO 02002KT 9999 OVC200 24/15 Q1004 BLU
23:25
V
25 °C 10 km+ 8.800 ft 020° 020° 3 kt METAR EHVK 142125Z AUTO 02003KT 9999 BKN088 BKN097 OVC220 25/14 Q1004 BLU
22:55
V
25 °C 10 km+ 8.800 ft 020° 020° 2 kt METAR EHVK 142055Z AUTO 02002KT 9999 BKN088 BKN097 OVC100 25/15 Q1004 BLU
22:25
V
25 °C 10 km+ 9.000 ft 010° 010° 3 kt METAR EHVK 142025Z AUTO 01003KT 9999 OVC090 25/14 Q1004 BLU
21:55
V
26 °C 10 km+ 24.000 ft 020° 020° 3 kt METAR EHVK 141955Z AUTO 02003KT 9999 OVC240 26/14 Q1004 BLU
21:25
V
26 °C 10 km+ 26.000 ft 020° 020° 4 kt METAR EHVK 141925Z AUTO 02004KT 9999 OVC260 26/14 Q1004 BLU
20:55
V
27 °C 10 km+ 26.000 ft 020° 020° 4 kt METAR EHVK 141855Z AUTO 02004KT 9999 OVC260 27/14 Q1004 BLU
20:25
V
29 °C 10 km+ 27.000 ft 020° 020° 4 kt METAR EHVK 141825Z AUTO 02004KT 9999 OVC270 29/13 Q1004 BLU
19:55
V
30 °C 10 km+ 25.000 ft 030° 030° 4 kt METAR EHVK 141755Z AUTO 03004KT 9999 OVC250 30/12 Q1004 BLU
19:25
V
31 °C 10 km+ 26.000 ft 040° 040° 4 kt METAR EHVK 141725Z AUTO 04004KT 9999 OVC260 31/11 Q1004 BLU
18:55
V
31 °C 10 km+ 26.000 ft 050° 050° 5 kt METAR EHVK 141655Z AUTO 05005KT 9999 OVC260 31/11 Q1004 BLU
18:25
V
31 °C 10 km+ 28.000 ft 060° 060° 5 kt METAR EHVK 141625Z AUTO 06005KT 030V090 9999 FEW094 OVC280 31/11 Q1005 BLU
17:55
V
31 °C 10 km+ 29.000 ft 110° 110° 5 kt METAR EHVK 141555Z AUTO 11005KT 070V130 9999 FEW085 OVC290 31/11 Q1005 BLU
17:25
V
31 °C 10 km+ 30.000 ft 060° 060° 6 kt METAR EHVK 141525Z AUTO 06006KT 010V130 9999 SCT080 BKN300 BKN360 31/10 Q1005 BLU
16:55
V
32 °C 10 km+ 7.900 ft 090° 090° 8 kt METAR EHVK 141455Z AUTO 09008KT 030V140 9999 BKN079 BKN087 32/10 Q1005 BLU
16:25
V
32 °C 10 km+ - 040° 040° 6 kt METAR EHVK 141425Z AUTO 04006KT 040V130 9999 SCT079 32/10 Q1005 BLU
15:55
V
32 °C 10 km+ 8.200 ft 120° 120° 5 kt METAR EHVK 141355Z AUTO 12005KT 060V180 9999 SCT076 BKN082 BKN340 32/11 Q1006 BLU
15:25
V
31 °C 10 km+ - 080° 080° 8 kt METAR EHVK 141325Z AUTO 08008KT 010V150 9999 FEW073 31/11 Q1006 BLU
14:55
V
32 °C 10 km+ - 090° 090° 8 kt METAR EHVK 141255Z AUTO 09008KT 360V140 9999 NCD 32/12 Q1006 BLU
14:25
V
31 °C 10 km+ - 060° 060° 8 kt METAR EHVK 141225Z AUTO 06008KT 030V130 9999 SCT070 SCT077 31/11 Q1007 BLU
13:55
V
31 °C 10 km+ - 090° 090° 6 kt METAR EHVK 141155Z AUTO 09006KT 040V140 9999 FEW065 SCT082 31/11 Q1007 BLU
13:25
V
31 °C 10 km+ 30.000 ft 110° 110° 8 kt METAR EHVK 141125Z AUTO 11008KT 060V160 9999 OVC300 31/13 Q1007 BLU
12:55
V
30 °C 10 km+ - 110° 110° 8 kt METAR EHVK 141055Z AUTO 11008KT 060V170 9999 NCD 30/13 Q1008 BLU
12:25
V
29 °C 10 km+ - 090° 090° 7 kt METAR EHVK 141025Z AUTO 09007KT 040V150 9999 SCT330 29/15 Q1008 BLU
11:55
V
29 °C 10 km+ - 110° 110° 6 kt METAR EHVK 140955Z AUTO 11006KT 080V170 9999 NCD 29/14 Q1008 BLU
11:25
V
28 °C 10 km+ 38.000 ft 090° 090° 6 kt METAR EHVK 140925Z AUTO 09006KT 060V160 9999 BKN380 28/15 Q1009 BLU
10:55
V
27 °C 10 km+ 38.000 ft 110° 110° 6 kt METAR EHVK 140855Z AUTO 11006KT 050V150 9999 OVC380 27/15 Q1009 BLU
10:25
V
26 °C 10 km+ - 090° 090° 6 kt METAR EHVK 140825Z AUTO 09006KT 040V120 9999 SCT360 26/15 Q1009 BLU
09:55
V
25 °C 10 km+ 37.000 ft 110° 110° 6 kt METAR EHVK 140755Z AUTO 11006KT 050V140 9999 OVC370 25/15 Q1009 BLU
09:25
V
24 °C 10 km+ 34.000 ft 130° 130° 6 kt METAR EHVK 140725Z AUTO 13006KT 050V160 9999 OVC340 24/15 Q1009 BLU
08:55
V
22 °C 10 km+ - 110° 110° 5 kt METAR EHVK 140655Z AUTO 11005KT 050V150 9999 SCT330 22/14 Q1009 BLU
08:25
V
21 °C 10 km+ 33.000 ft 100° 100° 5 kt METAR EHVK 140625Z AUTO 10005KT 080V140 9999 OVC330 21/14 Q1009 BLU
07:55
V
19 °C 10 km+ 32.000 ft 100° 100° 5 kt METAR EHVK 140555Z AUTO 10005KT 050V160 9999 OVC320 19/13 Q1009 BLU
07:25
V
18 °C 10 km+ - 090° 090° 4 kt METAR EHVK 140525Z AUTO 09004KT 9999 NCD 18/13 Q1010 BLU
06:55
V
17 °C 10 km+ - 080° 080° 5 kt METAR EHVK 140455Z AUTO 08005KT 9999 NCD 17/12 Q1010 BLU
06:25
V
16 °C 10 km+ - 090° 090° 4 kt METAR EHVK 140425Z AUTO 09004KT 030V180 9999 NCD 16/12 Q1010 BLU
05:55
V
17 °C 10 km+ - 080° 080° 3 kt METAR EHVK 140355Z AUTO 08003KT 9999 NCD 17/12 Q1010 BLU
05:25
V
17 °C 10 km+ - 080° 080° 4 kt METAR EHVK 140325Z AUTO 08004KT 9999 NCD 17/12 Q1010 BLU
04:55
V
18 °C 10 km+ - 090° 090° 4 kt METAR EHVK 140255Z AUTO 09004KT 090V160 9999 NCD 18/12 Q1010 BLU
04:25
V
19 °C 10 km+ - 100° 100° 4 kt METAR EHVK 140225Z AUTO 10004KT 080V170 9999 NCD 19/12 Q1010 BLU
03:55
V
19 °C 10 km+ - 090° 090° 4 kt METAR EHVK 140155Z AUTO 09004KT 060V120 9999 NCD 19/12 Q1011 BLU
03:25
V
20 °C 10 km+ - 090° 090° 6 kt METAR EHVK 140125Z AUTO 09006KT 9999 NCD 20/12 Q1011 BLU
02:55
V
20 °C 10 km+ - 080° 080° 6 kt METAR EHVK 140055Z AUTO 08006KT 060V130 9999 NCD 20/12 Q1011 BLU
02:25
V
20 °C 10 km+ - 080° 080° 6 kt METAR EHVK 140025Z AUTO 08006KT 050V110 9999 NCD 20/12 Q1011 BLU RMK CB INFO NOT AVBL
01:55
V
20 °C 10 km+ - 080° 080° 6 kt METAR EHVK 132355Z AUTO 08006KT 9999 NCD 20/12 Q1012 BLU
01:25
V
20 °C 10 km+ - 060° 060° 4 kt METAR EHVK 132325Z AUTO 06004KT 9999 NCD 20/12 Q1012 BLU
00:55
V
20 °C 10 km+ - 060° 060° 4 kt METAR EHVK 132255Z AUTO 06004KT 9999 NCD 20/12 Q1012 BLU
00:25
V
21 °C 10 km+ - 060° 060° 3 kt METAR EHVK 132225Z AUTO 06003KT 9999 NCD 21/12 Q1012 BLU

13 de agosto de 2022

Hora Código Clima Temp. Visibilidade Tecto Vento METAR/SPECI
23:55
V
21 °C 10 km+ - 060° 060° 3 kt METAR EHVK 132155Z AUTO 06003KT 9999 NCD 21/12 Q1012 BLU
23:25
V
21 °C 10 km+ - 050° 050° 3 kt METAR EHVK 132125Z AUTO 05003KT 9999 NCD 21/12 Q1013 BLU
22:55
V
22 °C 10 km+ - 040° 040° 2 kt METAR EHVK 132055Z AUTO 04002KT 9999 NCD 22/12 Q1013 BLU
22:25
V
22 °C 10 km+ - 030° 030° 3 kt METAR EHVK 132025Z AUTO 03003KT 9999 NCD 22/11 Q1013 BLU
21:55
V
23 °C 10 km+ - 020° 020° 3 kt METAR EHVK 131955Z AUTO 02003KT 9999 NCD 23/11 Q1013 BLU
21:25
V
25 °C 10 km+ - 030° 030° 2 kt METAR EHVK 131925Z AUTO 03002KT 9999 NCD 25/11 Q1013 BLU
20:55
V
27 °C 10 km+ - 040° 040° 3 kt METAR EHVK 131855Z AUTO 04003KT 9999 NCD 27/10 Q1013 BLU
20:25
V
29 °C 10 km+ - 070° 070° 3 kt METAR EHVK 131825Z AUTO 07003KT 9999 NCD 29/09 Q1013 BLU
19:55
V
30 °C 10 km+ - 100° 100° 4 kt METAR EHVK 131755Z AUTO 10004KT 070V130 9999 NCD 30/08 Q1013 BLU
19:25
V
31 °C 10 km+ - 110° 110° 5 kt METAR EHVK 131725Z AUTO 11005KT 070V150 9999 NCD 31/06 Q1013 BLU
18:55
V
31 °C 10 km+ - 120° 120° 7 kt METAR EHVK 131655Z AUTO 12007KT 070V160 9999 NCD 31/06 Q1013 BLU
18:25
V
31 °C 10 km+ - 090° 090° 7 kt METAR EHVK 131625Z AUTO 09007KT 050V160 9999 NCD 31/05 Q1013 BLU
17:55
V
31 °C 10 km+ - 110° 110° 7 kt METAR EHVK 131555Z AUTO 11007KT 070V190 9999 NCD 31/06 Q1014 BLU
17:25
V
31 °C 10 km+ - 090° 090° 7 kt METAR EHVK 131525Z AUTO 09007KT 040V160 9999 NCD 31/06 Q1014 BLU
16:55
V
31 °C 10 km+ - 090° 090° 3 kt METAR EHVK 131455Z AUTO 09003KT 360V160 9999 NCD 31/06 Q1014 BLU
Dados mais antigos

Nós e terceiros acompanhamos seu comportamento na internet em nosso site com cookies. Se você continuar, nós assumimos que você concorda com nossa política de cookies. Saiba mais